Aurelius, New York
Current Conditions -  °F | °C
As of 2:54 AM on Wednesday 22 Oct 2014 (Local Time) from KSYR Reporting Station
Overcast Overcast  
Wind Chill: 44°   Ceiling: 3000
Heat Index: 48°   Visibility: 8mi
Dew Point: 46°   Wind: 7mph
Humidity: 92%   Direction: 350°N
Pressure: 30.04"   Gusts: NA
Location:  42.9235°N, 76.5525°W
Report Text: KSYR 220654Z 35006KT 8SM FEW007 SCT015 OVC030 09/08 A3004 RMK SLP172 T00870075
Loading
Personal Weather Stations






























Interactive Weather Map
Tropical Storm Tracking
New forecast layout! Learn more

10-Day Weather Forecast

Advertisements
Track Severe Weather on mobile